Time;durP1;ratioP1;P1;durP2;ratioP2;P2;SDS_P1;SDS_P2;PMS_P1;PMS_P2;Temp;Humidity;BMP_temperature;BMP_pressure;BME280_temperature;BME280_humidity;BME280_pressure;Samples;Min_cycle;Max_cycle;Signal;HPM_P1;HPM_P2
2020/12/11 00:00:54;;;;;;;29.93;14.40;;;4.50;99.90;;;;;;5118442;28;20474;-92
2020/12/11 00:03:20;;;;;;;31.60;13.93;;;4.50;99.90;;;;;;5116708;28;20503;-93
2020/12/11 00:05:47;;;;;;;34.13;13.80;;;4.40;99.90;;;;;;5123131;28;20451;-93
2020/12/11 00:08:13;;;;;;;30.60;15.03;;;4.40;99.90;;;;;;5136465;28;20810;-93
2020/12/11 00:10:40;;;;;;;30.93;15.20;;;4.40;99.90;;;;;;5133886;28;21067;-93
2020/12/11 00:13:06;;;;;;;33.07;14.83;;;4.50;99.90;;;;;;5122478;28;20482;-92
2020/12/11 00:15:32;;;;;;;32.30;15.03;;;4.50;99.90;;;;;;5143172;28;20534;-92
2020/12/11 00:17:59;;;;;;;31.10;15.00;;;4.40;99.90;;;;;;5125530;28;20456;-93
2020/12/11 00:20:26;;;;;;;32.57;15.60;;;4.40;99.90;;;;;;5119477;28;20455;-92
2020/12/11 00:22:52;;;;;;;30.47;14.90;;;4.40;99.90;;;;;;5119714;28;20488;-93
2020/12/11 00:25:19;;;;;;;30.07;13.73;;;4.40;99.90;;;;;;5133695;28;20470;-92
2020/12/11 00:27:46;;;;;;;32.83;15.63;;;4.40;99.90;;;;;;5137299;28;20489;-91
2020/12/11 00:30:12;;;;;;;34.60;15.47;;;4.30;99.90;;;;;;5138250;28;20459;-92
2020/12/11 00:32:38;;;;;;;33.60;14.67;;;4.30;99.90;;;;;;5137655;28;20468;-92
2020/12/11 00:35:06;;;;;;;33.30;14.83;;;4.30;99.90;;;;;;5127606;28;21051;-92
2020/12/11 00:37:33;;;;;;;37.47;15.13;;;4.30;99.90;;;;;;5135798;28;20485;-92
2020/12/11 00:39:59;;;;;;;35.30;15.93;;;4.40;99.90;;;;;;5120503;28;20448;-92
2020/12/11 00:42:26;;;;;;;35.87;15.30;;;4.50;99.90;;;;;;5119817;28;20755;-92
2020/12/11 00:44:52;;;;;;;34.73;15.97;;;4.30;99.90;;;;;;5121516;28;20451;-92
2020/12/11 00:47:20;;;;;;;36.90;16.77;;;4.30;99.90;;;;;;5128527;27;20456;-93
2020/12/11 00:49:46;;;;;;;37.27;16.67;;;4.20;99.90;;;;;;5121194;27;20463;-93
2020/12/11 00:52:13;;;;;;;35.60;16.43;;;4.10;99.90;;;;;;5122308;27;21005;-92
2020/12/11 00:54:40;;;;;;;42.10;17.97;;;4.10;99.90;;;;;;5128822;27;20466;-92
2020/12/11 00:57:06;;;;;;;36.50;16.53;;;4.00;99.90;;;;;;5141242;27;20458;-92
2020/12/11 00:59:32;;;;;;;35.93;16.33;;;4.00;99.90;;;;;;5123223;27;20459;-92
2020/12/11 01:01:59;;;;;;;37.17;15.53;;;4.00;99.90;;;;;;5120552;27;20459;-91
2020/12/11 01:04:25;;;;;;;35.50;15.00;;;4.00;99.90;;;;;;5119496;28;20494;-91
2020/12/11 01:06:51;;;;;;;34.30;17.07;;;3.90;99.90;;;;;;5121341;28;20459;-91
2020/12/11 01:09:18;;;;;;;40.70;17.20;;;3.90;99.90;;;;;;5119749;28;20509;-92
2020/12/11 01:11:45;;;;;;;37.17;16.90;;;3.90;99.90;;;;;;5118853;28;20474;-93
2020/12/11 01:14:11;;;;;;;39.97;17.47;;;3.90;99.90;;;;;;5119238;28;20958;-92
2020/12/11 01:16:38;;;;;;;43.33;17.37;;;3.90;99.90;;;;;;5120614;27;20459;-91
2020/12/11 01:19:04;;;;;;;40.40;17.33;;;3.90;99.90;;;;;;5122195;27;20856;-92
2020/12/11 01:21:30;;;;;;;40.27;17.47;;;4.00;99.90;;;;;;5119588;28;20453;-91
2020/12/11 01:23:57;;;;;;;43.50;17.57;;;4.00;99.90;;;;;;5120085;28;20482;-92
2020/12/11 01:26:24;;;;;;;41.10;17.73;;;3.90;99.90;;;;;;5121554;27;20528;-92
2020/12/11 01:28:50;;;;;;;51.30;18.57;;;3.90;99.90;;;;;;5131352;27;20476;-91
2020/12/11 01:31:18;;;;;;;40.40;17.87;;;4.00;99.90;;;;;;5141968;27;20481;-92
2020/12/11 01:33:47;;;;;;;42.17;18.30;;;4.00;99.90;;;;;;5141316;27;20455;-90
2020/12/11 01:36:13;;;;;;;37.17;17.73;;;4.00;99.90;;;;;;5142027;27;20855;-92
2020/12/11 01:38:40;;;;;;;44.60;18.77;;;4.10;99.90;;;;;;5130670;27;20479;-92
2020/12/11 01:41:07;;;;;;;46.53;18.00;;;4.10;99.90;;;;;;5119582;28;20451;-92
2020/12/11 01:43:34;;;;;;;40.17;17.93;;;4.10;99.90;;;;;;5120618;27;20512;-92
2020/12/11 01:46:01;;;;;;;47.07;17.87;;;4.10;99.90;;;;;;5121019;28;20446;-92
2020/12/11 01:48:27;;;;;;;41.00;17.80;;;4.00;99.90;;;;;;5150863;27;20455;-91
2020/12/11 01:50:54;;;;;;;38.07;17.10;;;4.00;99.90;;;;;;5144294;27;20463;-91
2020/12/11 01:53:22;;;;;;;36.00;17.43;;;4.10;99.90;;;;;;5122438;27;20463;-92
2020/12/11 01:55:50;;;;;;;39.03;16.83;;;4.10;99.90;;;;;;5128085;28;20451;-92
2020/12/11 01:58:20;;;;;;;34.60;16.27;;;4.10;99.90;;;;;;5144027;27;20458;-92
2020/12/11 02:00:50;;;;;;;40.27;17.13;;;4.10;99.90;;;;;;5136507;27;20455;-93
2020/12/11 02:03:17;;;;;;;32.10;15.20;;;4.00;99.90;;;;;;5137431;27;20533;-93
2020/12/11 02:05:43;;;;;;;37.73;15.83;;;4.00;99.90;;;;;;5138375;27;20461;-92
2020/12/11 02:08:12;;;;;;;39.47;16.63;;;3.90;99.90;;;;;;5155452;27;20464;-92
2020/12/11 02:10:38;;;;;;;35.37;15.13;;;3.90;99.90;;;;;;5158739;27;20442;-91
2020/12/11 02:13:06;;;;;;;35.70;16.03;;;4.00;99.90;;;;;;5157494;27;20496;-92
2020/12/11 02:15:34;;;;;;;33.50;15.80;;;4.00;99.90;;;;;;5140478;27;20459;-92
2020/12/11 02:18:01;;;;;;;35.47;16.13;;;4.00;99.90;;;;;;5152381;27;20472;-92
2020/12/11 02:20:28;;;;;;;37.30;15.50;;;4.10;99.90;;;;;;5152030;27;20446;-93
2020/12/11 02:22:55;;;;;;;37.40;16.00;;;3.90;99.90;;;;;;5151306;27;20479;-93
2020/12/11 02:25:22;;;;;;;35.13;15.17;;;4.00;99.90;;;;;;5153119;27;20443;-92
2020/12/11 02:27:49;;;;;;;32.77;14.77;;;4.00;99.90;;;;;;5151185;27;20464;-92
2020/12/11 02:30:18;;;;;;;30.77;15.27;;;3.90;99.90;;;;;;5154721;27;20489;-92
2020/12/11 02:32:45;;;;;;;31.93;15.10;;;4.00;99.90;;;;;;5140290;27;20455;-92
2020/12/11 02:35:12;;;;;;;26.57;14.47;;;4.00;99.90;;;;;;5142026;27;20512;-91
2020/12/11 02:37:38;;;;;;;27.33;13.87;;;4.00;99.90;;;;;;5125262;27;20494;-92
2020/12/11 02:40:07;;;;;;;29.40;13.50;;;4.00;99.90;;;;;;5120102;28;20562;-92
2020/12/11 02:42:33;;;;;;;27.40;13.23;;;4.00;99.90;;;;;;5132534;27;20450;-91
2020/12/11 02:45:00;;;;;;;30.60;14.37;;;4.00;99.90;;;;;;5139729;27;20452;-92
2020/12/11 02:47:26;;;;;;;26.50;13.80;;;4.00;99.90;;;;;;5138168;27;20472;-92
2020/12/11 02:49:52;;;;;;;27.47;12.63;;;3.90;99.90;;;;;;5138216;27;20446;-92
2020/12/11 02:52:19;;;;;;;25.43;12.93;;;3.90;99.90;;;;;;5120936;27;20467;-92
2020/12/11 02:54:46;;;;;;;25.30;12.60;;;3.80;99.90;;;;;;5130430;27;20458;-92
2020/12/11 02:57:14;;;;;;;25.53;12.53;;;3.80;99.90;;;;;;5132528;27;20469;-93
2020/12/11 02:59:40;;;;;;;23.47;12.17;;;3.90;99.90;;;;;;5118871;28;20453;-92
2020/12/11 03:02:09;;;;;;;24.83;12.37;;;3.90;99.90;;;;;;5123441;27;20543;-93
2020/12/11 03:04:37;;;;;;;27.23;12.87;;;3.90;99.90;;;;;;5137990;27;20492;-93
2020/12/11 03:07:03;;;;;;;24.80;13.13;;;3.90;99.90;;;;;;5124250;28;20486;-93
2020/12/11 03:09:30;;;;;;;23.53;11.60;;;4.00;99.90;;;;;;5119744;28;20468;-92
2020/12/11 03:11:56;;;;;;;27.97;12.67;;;3.90;99.90;;;;;;5122167;27;20464;-91
2020/12/11 03:14:23;;;;;;;27.00;12.30;;;4.00;99.90;;;;;;5139996;27;20464;-92
2020/12/11 03:16:50;;;;;;;25.20;12.37;;;3.90;99.90;;;;;;5138355;27;20454;-93
2020/12/11 03:19:16;;;;;;;26.90;12.80;;;4.00;99.90;;;;;;5138848;27;20948;-92
2020/12/11 03:21:42;;;;;;;23.03;12.33;;;4.00;99.90;;;;;;5123225;27;20459;-93
2020/12/11 03:24:09;;;;;;;26.10;12.17;;;4.00;99.90;;;;;;5116892;28;20492;-93
2020/12/11 03:26:35;;;;;;;24.10;12.03;;;4.00;99.90;;;;;;5133226;27;20470;-92
2020/12/11 03:29:01;;;;;;;26.17;12.13;;;3.90;99.90;;;;;;5138188;27;20457;-93
2020/12/11 03:31:29;;;;;;;24.50;12.00;;;3.90;99.90;;;;;;5119195;28;20454;-92
2020/12/11 03:33:55;;;;;;;27.53;11.80;;;4.00;99.90;;;;;;5122305;28;20449;-93
2020/12/11 03:36:24;;;;;;;22.17;11.77;;;3.90;99.90;;;;;;5118243;28;20454;-92
2020/12/11 03:38:50;;;;;;;24.90;12.37;;;3.90;99.90;;;;;;5118854;28;20505;-93
2020/12/11 03:41:17;;;;;;;21.93;11.67;;;3.90;99.90;;;;;;5120591;28;20456;-92
2020/12/11 03:43:43;;;;;;;25.43;10.97;;;3.70;99.90;;;;;;5151631;27;20472;-93
2020/12/11 03:46:17;;;;;;;22.33;11.93;;;3.70;99.90;;;;;;5154289;27;20491;-91
2020/12/11 03:48:45;;;;;;;24.60;11.20;;;3.80;99.90;;;;;;5155885;27;20457;-92
2020/12/11 03:51:16;;;;;;;24.70;11.77;;;3.80;99.90;;;;;;5128291;28;20452;-93
2020/12/11 03:53:43;;;;;;;25.60;11.37;;;3.80;99.90;;;;;;5123615;28;20490;-93
2020/12/11 03:56:09;;;;;;;25.83;12.30;;;3.80;99.90;;;;;;5117291;28;20509;-93
2020/12/11 03:58:36;;;;;;;27.20;11.80;;;3.70;99.90;;;;;;5120019;28;20585;-94
2020/12/11 04:01:02;;;;;;;26.33;13.40;;;3.60;99.90;;;;;;5127365;28;20444;-91
2020/12/11 04:03:28;;;;;;;24.10;11.70;;;3.70;99.90;;;;;;5149630;27;20471;-93
2020/12/11 04:05:56;;;;;;;27.00;12.40;;;3.60;99.90;;;;;;5134941;27;20443;-92
2020/12/11 04:08:22;;;;;;;21.87;10.67;;;3.70;99.90;;;;;;5134603;28;20518;-93
2020/12/11 04:10:48;;;;;;;23.57;11.90;;;3.80;99.90;;;;;;5123401;28;20437;-92
2020/12/11 04:13:15;;;;;;;24.20;10.83;;;3.80;99.90;;;;;;5139386;28;20436;-92
2020/12/11 04:15:42;;;;;;;23.43;10.77;;;3.90;99.90;;;;;;5140372;28;20455;-93
2020/12/11 04:18:08;;;;;;;23.30;11.30;;;3.90;99.90;;;;;;5121783;28;20461;-92
2020/12/11 04:20:35;;;;;;;22.23;11.37;;;3.80;99.90;;;;;;5129075;27;20456;-93
2020/12/11 04:23:02;;;;;;;28.10;11.97;;;3.80;99.90;;;;;;5141338;27;20980;-92
2020/12/11 04:25:28;;;;;;;27.20;12.00;;;3.80;99.90;;;;;;5134673;27;20446;-93
2020/12/11 04:27:55;;;;;;;22.60;10.80;;;3.80;99.90;;;;;;5131687;27;20462;-92
2020/12/11 04:30:21;;;;;;;24.00;12.27;;;3.90;99.90;;;;;;5121634;28;20499;-92
2020/12/11 04:32:47;;;;;;;22.93;12.20;;;3.90;99.90;;;;;;5126442;27;20451;-93
2020/12/11 04:35:14;;;;;;;24.93;11.83;;;3.90;99.90;;;;;;5122845;27;20450;-92
2020/12/11 04:37:40;;;;;;;23.47;11.37;;;4.00;99.90;;;;;;5121338;27;20509;-93
2020/12/11 04:40:08;;;;;;;21.87;11.17;;;4.00;99.90;;;;;;5120587;28;20451;-92
2020/12/11 04:42:36;;;;;;;24.63;11.93;;;3.90;99.90;;;;;;5120398;28;20448;-93
2020/12/11 04:45:03;;;;;;;23.97;12.17;;;3.80;99.90;;;;;;5140664;27;20493;-93
2020/12/11 04:47:29;;;;;;;26.00;11.97;;;3.80;99.90;;;;;;5124643;27;20465;-93
2020/12/11 04:50:00;;;;;;;19.40;10.93;;;3.90;99.90;;;;;;5120130;28;20462;-93
2020/12/11 04:52:30;;;;;;;21.00;11.10;;;3.90;99.90;;;;;;5120018;28;20457;-93
2020/12/11 04:54:59;;;;;;;22.53;11.57;;;4.00;99.90;;;;;;5124630;27;20541;-93
2020/12/11 04:57:30;;;;;;;20.00;11.03;;;3.90;99.90;;;;;;5140415;27;20449;-92
2020/12/11 04:59:57;;;;;;;19.17;10.67;;;3.90;99.90;;;;;;5114416;27;20488;-92
2020/12/11 05:02:28;;;;;;;22.63;12.13;;;3.80;99.90;;;;;;5127422;27;20460;-93
2020/12/11 05:04:54;;;;;;;21.40;11.00;;;3.80;99.90;;;;;;5120171;28;20850;-93
2020/12/11 05:07:21;;;;;;;21.83;12.43;;;3.90;99.90;;;;;;5119785;28;20455;-92
2020/12/11 05:09:57;;;;;;;27.17;12.47;;;3.90;99.90;;;;;;5121036;27;20461;-92
2020/12/11 05:12:24;;;;;;;20.47;11.33;;;3.90;99.90;;;;;;5120906;28;20477;-92
2020/12/11 05:14:56;;;;;;;26.27;11.63;;;3.90;99.90;;;;;;5121428;28;20456;-93
2020/12/11 05:17:28;;;;;;;24.17;11.73;;;3.80;99.90;;;;;;5136961;27;20449;-93
2020/12/11 05:19:55;;;;;;;23.33;11.33;;;3.80;99.90;;;;;;5139563;27;20455;-92
2020/12/11 05:22:23;;;;;;;20.97;11.23;;;3.80;99.90;;;;;;5139271;27;20447;-93
2020/12/11 05:24:51;;;;;;;23.33;11.03;;;3.80;99.90;;;;;;5126665;27;20530;-93
2020/12/11 05:27:33;;;;;;;24.00;11.27;;;3.80;99.90;;;;;;5122213;28;20462;-93
2020/12/11 05:30:19;;;;;;;22.30;12.00;;;3.80;99.90;;;;;;5141623;27;20454;-93
2020/12/11 05:32:47;;;;;;;19.67;11.17;;;4.00;99.90;;;;;;5140749;27;20555;-91
2020/12/11 05:35:28;;;;;;;22.20;11.10;;;4.00;99.90;;;;;;5142529;27;20549;-93
2020/12/11 05:37:58;;;;;;;23.53;12.60;;;4.00;99.90;;;;;;5137166;27;20478;-92
2020/12/11 05:40:28;;;;;;;21.70;11.57;;;3.90;99.90;;;;;;5141687;27;20471;-93
2020/12/11 05:43:15;;;;;;;22.17;11.83;;;3.90;99.90;;;;;;5129725;27;20462;-92
2020/12/11 05:45:51;;;;;;;24.33;11.90;;;4.00;99.90;;;;;;5137209;27;20723;-92
2020/12/11 05:48:18;;;;;;;21.73;10.83;;;4.00;99.90;;;;;;5122464;27;20463;-92
2020/12/11 05:50:45;;;;;;;24.10;11.13;;;3.90;99.90;;;;;;5135708;27;20459;-93
2020/12/11 05:53:11;;;;;;;20.57;11.60;;;3.80;99.90;;;;;;5139839;27;20478;-93
2020/12/11 05:55:38;;;;;;;25.50;12.30;;;3.80;99.90;;;;;;5125724;27;20466;-93
2020/12/11 05:58:09;;;;;;;21.43;11.03;;;3.80;99.90;;;;;;5127626;27;20494;-93
2020/12/11 06:00:36;;;;;;;22.83;11.67;;;3.80;99.90;;;;;;5139022;27;20455;-92
2020/12/11 06:03:06;;;;;;;26.57;13.13;;;3.80;99.90;;;;;;5138928;27;20462;-93
2020/12/11 06:05:37;;;;;;;23.53;11.93;;;3.80;99.90;;;;;;5133369;27;20545;-91
2020/12/11 06:08:08;;;;;;;27.00;12.87;;;3.70;99.90;;;;;;5137939;27;20447;-92
2020/12/11 06:10:35;;;;;;;23.87;12.97;;;3.60;99.90;;;;;;5150896;27;20453;-93
2020/12/11 06:13:05;;;;;;;21.57;12.27;;;3.70;99.90;;;;;;5139890;27;20464;-93
2020/12/11 06:15:38;;;;;;;26.40;13.13;;;3.70;99.90;;;;;;5126715;28;20474;-92
2020/12/11 06:18:14;;;;;;;25.13;12.57;;;3.70;99.90;;;;;;5127664;27;20587;-92
2020/12/11 06:20:41;;;;;;;26.33;12.43;;;3.70;99.90;;;;;;5132620;28;20448;-92
2020/12/11 06:23:30;;;;;;;26.70;13.40;;;3.70;99.90;;;;;;5131027;28;20513;-92
2020/12/11 06:25:58;;;;;;;24.70;12.83;;;3.80;99.90;;;;;;5128274;27;20484;-91
2020/12/11 06:28:45;;;;;;;29.53;13.70;;;3.80;99.90;;;;;;5120759;27;20836;-90
2020/12/11 06:31:13;;;;;;;32.17;14.03;;;3.70;99.90;;;;;;5126968;27;20458;-92
2020/12/11 06:33:42;;;;;;;30.80;12.67;;;3.70;99.90;;;;;;5123539;28;20440;-91
2020/12/11 06:36:10;;;;;;;25.93;12.73;;;3.70;99.90;;;;;;5133507;27;20547;-92
2020/12/11 06:38:55;;;;;;;28.30;13.03;;;3.70;99.90;;;;;;5148512;27;20482;-92
2020/12/11 06:41:40;;;;;;;24.87;12.07;;;3.70;99.90;;;;;;5143442;27;20432;-92
2020/12/11 06:44:17;;;;;;;28.83;13.37;;;3.70;99.90;;;;;;5144886;27;20479;-92
2020/12/11 06:47:02;;;;;;;27.97;13.27;;;3.70;99.90;;;;;;5152030;27;20454;-92
2020/12/11 06:49:29;;;;;;;31.00;14.40;;;3.60;99.90;;;;;;5134988;27;20520;-92
2020/12/11 06:52:10;;;;;;;31.30;14.67;;;3.60;99.90;;;;;;5127632;28;20504;-92
2020/12/11 06:54:56;;;;;;;33.10;13.73;;;3.60;99.90;;;;;;5137038;27;20462;-91
2020/12/11 06:57:37;;;;;;;28.40;13.50;;;3.60;99.90;;;;;;5142518;27;20451;-92
2020/12/11 07:00:30;;;;;;;34.10;14.53;;;3.60;99.90;;;;;;5147370;27;20457;-92
2020/12/11 07:03:26;;;;;;;34.40;14.70;;;3.60;99.90;;;;;;5149490;27;20457;-91
2020/12/11 07:06:09;;;;;;;32.97;14.17;;;3.70;99.90;;;;;;5132291;27;20824;-92
2020/12/11 07:08:35;;;;;;;32.40;15.00;;;3.70;99.90;;;;;;5129831;28;20474;-92
2020/12/11 07:11:14;;;;;;;32.10;15.40;;;3.70;99.90;;;;;;5128521;28;20471;-92
2020/12/11 07:13:48;;;;;;;34.27;14.77;;;3.70;99.90;;;;;;5129571;28;20511;-92
2020/12/11 07:16:15;;;;;;;36.87;16.07;;;3.70;99.90;;;;;;5130579;28;20535;-93
2020/12/11 07:18:43;;;;;;;34.07;15.37;;;3.60;99.90;;;;;;5131864;27;20447;-93
2020/12/11 07:21:12;;;;;;;31.70;15.03;;;3.60;99.90;;;;;;5148619;27;20517;-92
2020/12/11 07:23:39;;;;;;;31.17;14.97;;;3.60;99.90;;;;;;5134740;27;20479;-92
2020/12/11 07:26:06;;;;;;;38.87;15.00;;;3.70;99.90;;;;;;5124882;28;20543;-92
2020/12/11 07:28:33;;;;;;;36.50;16.70;;;3.60;99.90;;;;;;5123706;28;20462;-93
2020/12/11 07:31:00;;;;;;;32.43;15.33;;;3.70;99.90;;;;;;5125215;28;20471;-93
2020/12/11 07:33:35;;;;;;;37.00;15.97;;;3.60;99.90;;;;;;5126939;28;20447;-92
2020/12/11 07:36:03;;;;;;;35.87;16.60;;;3.70;99.90;;;;;;5103877;28;20912;-92
2020/12/11 07:38:32;;;;;;;34.63;15.90;;;3.80;99.90;;;;;;5118872;28;20479;-92
2020/12/11 07:41:06;;;;;;;30.90;15.77;;;3.80;99.90;;;;;;5128772;28;20489;-92
2020/12/11 07:43:33;;;;;;;36.10;16.60;;;3.90;99.90;;;;;;5130644;28;20463;-93
2020/12/11 07:45:59;;;;;;;36.87;16.07;;;3.90;99.90;;;;;;5129746;28;20942;-92
2020/12/11 07:48:25;;;;;;;38.67;17.23;;;3.80;99.90;;;;;;5132103;28;20487;-93
2020/12/11 07:50:53;;;;;;;37.87;16.00;;;3.80;99.90;;;;;;5134807;28;20893;-92
2020/12/11 07:53:20;;;;;;;41.53;16.57;;;3.80;99.90;;;;;;5155606;27;20460;-94
2020/12/11 07:55:47;;;;;;;41.40;17.37;;;3.90;99.90;;;;;;5157530;27;20458;-93
2020/12/11 07:58:14;;;;;;;41.63;17.53;;;3.80;99.90;;;;;;5144575;27;20490;-92
2020/12/11 08:00:48;;;;;;;39.57;16.57;;;3.80;99.90;;;;;;5157608;27;20986;-92
2020/12/11 08:03:15;;;;;;;39.17;16.07;;;3.90;99.90;;;;;;5157107;27;20446;-94
2020/12/11 08:05:42;;;;;;;42.70;19.10;;;3.90;99.90;;;;;;5150871;27;20560;-93
2020/12/11 08:08:10;;;;;;;40.77;17.30;;;3.90;99.90;;;;;;5157043;27;20565;-92
2020/12/11 08:10:41;;;;;;;39.90;16.63;;;4.00;99.90;;;;;;5152893;27;20480;-93
2020/12/11 08:13:20;;;;;;;38.07;17.00;;;4.00;99.90;;;;;;5156366;27;20477;-93
2020/12/11 08:15:46;;;;;;;40.57;17.77;;;4.10;99.90;;;;;;5137486;28;20519;-93
2020/12/11 08:18:21;;;;;;;44.87;18.43;;;4.00;99.90;;;;;;5138683;27;20449;-92
2020/12/11 08:21:05;;;;;;;42.10;18.13;;;4.00;99.90;;;;;;5129509;27;20517;-93
2020/12/11 08:23:42;;;;;;;42.67;17.63;;;4.10;99.90;;;;;;5138317;27;20478;-94
2020/12/11 08:26:19;;;;;;;39.70;17.70;;;4.10;99.90;;;;;;5136238;28;20454;-94
2020/12/11 08:28:47;;;;;;;40.37;18.13;;;4.10;99.90;;;;;;5130669;27;20457;-92
2020/12/11 08:31:26;;;;;;;37.03;16.77;;;4.10;99.90;;;;;;5143785;27;20474;-92
2020/12/11 08:34:05;;;;;;;42.83;17.37;;;4.10;99.90;;;;;;5117070;28;20496;-92
2020/12/11 08:36:32;;;;;;;46.40;17.90;;;4.10;99.90;;;;;;5121981;28;20459;-92
2020/12/11 08:39:20;;;;;;;45.13;18.90;;;4.10;99.90;;;;;;5137431;28;20567;-93
2020/12/11 08:47:57;;;;;;;48.57;17.57;;;4.00;99.90;;;;;;5138610;28;20454;-92
2020/12/11 08:50:34;;;;;;;40.17;17.17;;;4.00;99.90;;;;;;5136061;28;20450;-93
2020/12/11 08:53:05;;;;;;;41.00;17.07;;;4.00;99.90;;;;;;5135130;28;20451;-92
2020/12/11 08:55:32;;;;;;;40.57;17.13;;;4.00;99.90;;;;;;5135727;28;20467;-92
2020/12/11 08:57:59;;;;;;;42.57;18.17;;;4.00;99.90;;;;;;5145422;27;20468;-92
2020/12/11 09:00:27;;;;;;;36.87;16.63;;;3.90;99.90;;;;;;5140373;27;20444;-94
2020/12/11 09:02:53;;;;;;;40.73;18.70;;;3.90;99.90;;;;;;5153007;27;20503;-93
2020/12/11 09:05:21;;;;;;;44.03;18.07;;;3.90;99.90;;;;;;5142777;27;20563;-92
2020/12/11 09:07:48;;;;;;;45.20;18.23;;;3.90;99.90;;;;;;5153840;27;20451;-92
2020/12/11 09:10:17;;;;;;;40.50;17.70;;;3.90;99.90;;;;;;5155737;27;20438;-92
2020/12/11 09:12:46;;;;;;;41.20;17.67;;;3.90;99.90;;;;;;5155110;27;20449;-93
2020/12/11 09:15:14;;;;;;;39.80;17.57;;;4.00;99.90;;;;;;5138588;27;20470;-93
2020/12/11 09:17:46;;;;;;;39.20;16.67;;;4.00;99.90;;;;;;5136541;28;20443;-93
2020/12/11 09:20:13;;;;;;;39.40;18.27;;;4.10;99.90;;;;;;5146078;27;20447;-92
2020/12/11 09:22:40;;;;;;;40.20;18.57;;;4.10;99.90;;;;;;5133150;27;20821;-92
2020/12/11 09:25:07;;;;;;;41.80;18.67;;;4.10;99.90;;;;;;5125363;28;20594;-93
2020/12/11 09:27:34;;;;;;;40.43;16.90;;;4.00;99.90;;;;;;5133231;28;20478;-93
2020/12/11 09:30:13;;;;;;;42.40;18.17;;;3.90;99.90;;;;;;5135817;27;20458;-93
2020/12/11 09:32:48;;;;;;;35.83;17.50;;;4.00;99.90;;;;;;5130803;28;20461;-94
2020/12/11 09:35:16;;;;;;;37.83;17.33;;;4.00;99.90;;;;;;5130367;28;20471;-93
2020/12/11 09:37:49;;;;;;;43.20;17.73;;;4.10;99.90;;;;;;5131274;28;20488;-93
2020/12/11 09:40:16;;;;;;;38.20;17.43;;;4.10;99.90;;;;;;5147282;27;20451;-92
2020/12/11 09:43:16;;;;;;;39.00;17.20;;;4.10;99.90;;;;;;5137230;27;20491;-93
2020/12/11 09:45:46;;;;;;;39.63;16.77;;;4.10;99.90;;;;;;5127140;28;20494;-96
2020/12/11 09:48:17;;;;;;;38.33;17.73;;;4.20;99.90;;;;;;5138328;27;21016;-93
2020/12/11 09:50:53;;;;;;;43.30;18.67;;;4.20;99.90;;;;;;5128951;28;20462;-94
2020/12/11 09:56:04;;;;;;;45.30;18.30;;;4.10;99.90;;;;;;5304362;22;20501;-96
2020/12/11 09:58:34;;;;;;;44.80;18.47;;;4.00;99.90;;;;;;5135329;28;20462;-96
2020/12/11 10:01:05;;;;;;;38.97;17.07;;;3.90;99.90;;;;;;5140685;27;20461;-96
2020/12/11 10:03:41;;;;;;;43.60;18.90;;;4.00;99.90;;;;;;5140006;27;20457;-96
2020/12/11 10:09:08;;;;;;;35.67;16.97;;;3.90;99.90;;;;;;5132559;28;20501;-96
2020/12/11 10:11:42;;;;;;;43.23;17.47;;;4.00;99.90;;;;;;5129916;27;20465;-96
2020/12/11 10:19:58;;;;;;;38.27;16.70;;;4.20;99.90;;;;;;5131555;28;20526;-96
2020/12/11 10:25:56;;;;;;;39.67;16.40;;;4.20;99.90;;;;;;5112748;28;20591;-96
2020/12/11 10:28:23;;;;;;;40.47;17.60;;;4.20;99.90;;;;;;5125722;28;20722;-96
2020/12/11 10:30:51;;;;;;;39.30;17.03;;;4.20;99.90;;;;;;5125744;28;20451;-96
2020/12/11 10:33:18;;;;;;;39.83;17.57;;;4.10;99.90;;;;;;5144962;27;20454;-96
2020/12/11 10:35:51;;;;;;;38.70;16.40;;;4.00;99.90;;;;;;5147392;27;20458;-96
2020/12/11 10:38:19;;;;;;;38.83;17.83;;;4.00;99.90;;;;;;5147180;27;20546;-96
2020/12/11 10:40:51;;;;;;;40.93;16.53;;;4.00;99.90;;;;;;5147822;27;20449;-96
2020/12/11 10:43:20;;;;;;;39.17;17.40;;;4.00;99.90;;;;;;5157619;27;20485;-95
2020/12/11 10:45:49;;;;;;;38.50;17.17;;;4.00;99.90;;;;;;5159063;27;20542;-94
2020/12/11 10:48:18;;;;;;;44.03;17.27;;;4.10;99.90;;;;;;5140276;27;20526;-96
2020/12/11 10:50:46;;;;;;;36.80;17.03;;;4.20;99.90;;;;;;5138437;28;20452;-96
2020/12/11 10:53:13;;;;;;;35.70;16.13;;;4.30;99.90;;;;;;5133870;28;20455;-96
2020/12/11 10:55:43;;;;;;;40.07;16.40;;;4.30;99.90;;;;;;5133645;28;20470;-96
2020/12/11 10:58:11;;;;;;;36.97;17.00;;;4.20;99.90;;;;;;5128061;28;20530;-96
2020/12/11 11:03:54;;;;;;;40.93;16.90;;;4.10;99.90;;;;;;5105244;28;20605;-96
2020/12/11 11:06:25;;;;;;;40.40;16.70;;;3.90;99.90;;;;;;5117128;28;20588;-96
2020/12/11 11:09:07;;;;;;;39.13;16.73;;;3.90;99.90;;;;;;5109862;28;20845;-96
2020/12/11 14:28:04;;;;;;;40.10;16.00;;;4.30;99.90;;;;;;5167896;22;20505;-91
2020/12/11 14:30:31;;;;;;;35.63;16.03;;;4.20;99.90;;;;;;5133041;28;20456;-92
2020/12/11 14:32:58;;;;;;;42.67;17.20;;;4.20;99.90;;;;;;5147033;27;20512;-91
2020/12/11 14:35:24;;;;;;;39.30;16.57;;;4.20;99.90;;;;;;5143373;27;20448;-92
2020/12/11 14:37:51;;;;;;;36.73;17.20;;;4.20;99.90;;;;;;5147477;27;20442;-91
2020/12/11 14:41:18;;;;;;;36.57;16.67;;;4.20;99.90;;;;;;5145427;27;20957;-91
2020/12/11 14:43:45;;;;;;;35.73;16.03;;;4.20;99.90;;;;;;4984551;28;20470;-92
2020/12/11 14:46:11;;;;;;;38.70;16.87;;;4.20;99.90;;;;;;5114779;27;20452;-91
2020/12/11 14:48:38;;;;;;;37.90;16.53;;;4.20;99.90;;;;;;5151083;27;20447;-91
2020/12/11 14:51:04;;;;;;;38.07;16.80;;;4.20;99.90;;;;;;5151357;27;20450;-92
2020/12/11 14:53:31;;;;;;;34.67;15.83;;;4.20;99.90;;;;;;5149760;27;20459;-91
2020/12/11 14:55:57;;;;;;;40.13;16.53;;;4.30;99.90;;;;;;5150109;27;20454;-92
2020/12/11 14:58:24;;;;;;;32.80;16.50;;;4.30;99.90;;;;;;5138613;27;20565;-92
2020/12/11 15:00:52;;;;;;;38.37;16.50;;;4.20;99.90;;;;;;5130910;28;20519;-91
2020/12/11 15:03:18;;;;;;;39.57;16.47;;;4.10;99.90;;;;;;5146822;27;20478;-91
2020/12/11 15:05:45;;;;;;;34.87;16.73;;;4.10;99.90;;;;;;5141024;27;20491;-92
2020/12/11 15:08:12;;;;;;;33.53;16.43;;;4.20;99.90;;;;;;5142358;27;20890;-93
2020/12/11 15:10:38;;;;;;;37.17;16.50;;;4.20;99.90;;;;;;5149221;27;20470;-91
2020/12/11 15:13:05;;;;;;;33.13;16.43;;;4.20;99.90;;;;;;5145229;27;20449;-92
2020/12/11 15:15:32;;;;;;;34.37;16.30;;;4.30;99.90;;;;;;5150243;27;20446;-91
2020/12/11 15:18:00;;;;;;;33.30;15.57;;;4.30;99.90;;;;;;5131865;28;20451;-91
2020/12/11 15:20:27;;;;;;;31.80;15.37;;;4.10;99.90;;;;;;5129047;27;20454;-92
2020/12/11 15:22:54;;;;;;;30.97;14.27;;;4.10;99.90;;;;;;5149311;27;20465;-91
2020/12/11 15:25:20;;;;;;;29.73;14.80;;;4.10;99.90;;;;;;5143461;27;20555;-92
2020/12/11 15:27:47;;;;;;;31.53;16.17;;;4.10;99.90;;;;;;5129705;28;20627;-90
2020/12/11 15:30:14;;;;;;;37.60;15.60;;;4.20;99.90;;;;;;5130885;28;20458;-92
2020/12/11 15:32:43;;;;;;;32.53;15.37;;;4.20;99.90;;;;;;5131359;28;20454;-92
2020/12/11 15:35:12;;;;;;;30.77;14.77;;;4.20;99.90;;;;;;5122638;28;20455;-92
2020/12/11 15:37:38;;;;;;;31.47;15.23;;;4.20;99.90;;;;;;5137312;28;20458;-93
2020/12/11 15:40:05;;;;;;;32.60;14.87;;;4.10;99.90;;;;;;5140999;27;20455;-92
2020/12/11 15:42:32;;;;;;;32.00;16.07;;;4.10;99.90;;;;;;5126764;28;20485;-92
2020/12/11 15:44:58;;;;;;;29.43;15.27;;;4.10;99.90;;;;;;5121478;28;20488;-93
2020/12/11 15:47:25;;;;;;;33.97;16.03;;;4.20;99.90;;;;;;5136597;28;20451;-92
2020/12/11 15:49:54;;;;;;;29.40;15.13;;;4.20;99.90;;;;;;5137430;28;20500;-93
2020/12/11 15:52:21;;;;;;;31.87;14.93;;;4.20;99.90;;;;;;5143861;28;20459;-93
2020/12/11 15:54:49;;;;;;;33.07;15.67;;;4.20;99.90;;;;;;5136578;28;20526;-93
2020/12/11 15:57:17;;;;;;;31.53;15.33;;;4.20;99.90;;;;;;5127399;28;20814;-93
2020/12/11 15:59:44;;;;;;;32.43;15.50;;;4.10;99.90;;;;;;5124990;28;20444;-93
2020/12/11 16:02:10;;;;;;;30.77;15.33;;;4.20;99.90;;;;;;5128601;28;20455;-91
2020/12/11 16:04:37;;;;;;;33.90;15.47;;;4.30;99.90;;;;;;5132206;28;20740;-91
2020/12/11 16:07:04;;;;;;;32.20;14.87;;;4.20;99.90;;;;;;5149843;28;20515;-92
2020/12/11 16:09:32;;;;;;;29.70;14.97;;;4.20;99.90;;;;;;5146195;28;20488;-91
2020/12/11 16:12:02;;;;;;;33.77;16.43;;;4.20;99.90;;;;;;5145843;28;20445;-89
2020/12/11 16:14:29;;;;;;;31.37;15.90;;;4.10;99.90;;;;;;5152751;27;20457;-93
2020/12/11 16:16:55;;;;;;;30.70;15.50;;;4.20;99.90;;;;;;5150899;27;20484;-85
2020/12/11 16:19:21;;;;;;;31.53;15.57;;;4.10;99.90;;;;;;5145584;27;20454;-85
2020/12/11 16:21:48;;;;;;;29.20;14.50;;;4.20;99.90;;;;;;5146673;27;20447;-85
2020/12/11 16:24:14;;;;;;;30.03;15.03;;;4.20;99.90;;;;;;5143965;27;20478;-91
2020/12/11 16:26:42;;;;;;;32.23;15.50;;;4.20;99.90;;;;;;5134770;27;20457;-92